createdAt,value
2019-03-04T10:52:28.144Z,3.50
2019-03-04T10:54:59.175Z,3.13
2019-03-04T10:57:30.248Z,2.80
2019-03-04T11:00:01.251Z,2.97
2019-03-04T11:02:34.311Z,2.60
2019-03-04T11:05:06.167Z,2.80
2019-03-04T11:07:37.361Z,2.40
2019-03-04T11:10:08.748Z,3.07
2019-03-04T11:12:40.007Z,2.33
2019-03-04T11:15:19.783Z,2.83
2019-03-04T11:17:51.157Z,3.60
2019-03-04T11:20:22.256Z,2.67
2019-03-04T11:22:53.166Z,2.40
2019-03-04T11:25:24.241Z,2.30
2019-03-04T11:27:55.931Z,2.90
2019-03-04T11:30:30.030Z,2.30
2019-03-04T11:33:01.512Z,2.10
2019-03-04T11:35:33.072Z,2.17
2019-03-04T11:38:05.884Z,2.53
2019-03-04T11:40:40.726Z,2.27
2019-03-04T11:43:12.124Z,2.40
2019-03-04T11:45:43.611Z,3.17
2019-03-04T11:48:15.140Z,2.70
2019-03-04T11:50:46.602Z,3.10
2019-03-04T11:53:17.714Z,2.40
2019-03-04T11:55:49.115Z,2.67
2019-03-04T11:58:20.457Z,2.47
2019-03-04T12:00:59.249Z,2.87
2019-03-04T12:03:30.431Z,2.40
2019-03-04T12:06:02.095Z,2.17
2019-03-04T12:08:33.261Z,2.80
2019-03-04T12:11:04.715Z,2.80
2019-03-04T12:13:35.813Z,2.60
2019-03-04T12:16:07.221Z,2.80
2019-03-04T12:18:38.514Z,2.90
2019-03-04T12:21:09.994Z,2.10
2019-03-04T12:23:41.722Z,2.90
2019-03-04T12:26:13.312Z,4.70
2019-03-04T12:28:44.910Z,3.27
2019-03-04T12:31:15.972Z,2.63
2019-03-04T12:33:47.366Z,2.90
2019-03-04T12:36:18.776Z,2.67
2019-03-04T12:38:50.006Z,3.07
2019-03-04T12:41:21.277Z,2.70
2019-03-04T12:43:52.444Z,2.67
2019-03-04T12:46:23.815Z,3.47
2019-03-04T12:48:55.134Z,7.30
2019-03-04T12:51:26.249Z,2.90
2019-03-04T12:53:58.639Z,2.33
2019-03-04T12:56:29.854Z,2.77
2019-03-04T12:59:00.847Z,2.60
2019-03-04T13:01:32.182Z,2.57
2019-03-04T13:04:03.291Z,2.37
2019-03-04T13:06:34.445Z,3.00
2019-03-04T13:09:14.091Z,2.47
2019-03-04T13:11:39.596Z,3.10
2019-03-04T13:14:11.357Z,2.87
2019-03-04T13:16:42.681Z,2.80
2019-03-04T13:19:13.937Z,2.70
2019-03-04T13:21:45.040Z,2.80
2019-03-04T13:24:16.396Z,2.70
2019-03-04T13:26:47.714Z,3.20
2019-03-04T13:29:18.901Z,2.93
2019-03-04T13:31:50.130Z,3.00
2019-03-04T13:34:21.645Z,2.93
2019-03-04T13:36:52.874Z,3.30
2019-03-04T13:39:24.063Z,3.33
2019-03-04T13:41:55.228Z,3.30
2019-03-04T13:44:26.549Z,3.63
2019-03-04T13:46:57.727Z,3.30
2019-03-04T13:49:29.947Z,3.43
2019-03-04T13:52:01.052Z,2.83
2019-03-04T13:54:33.235Z,2.77
2019-03-04T13:57:04.245Z,2.87
2019-03-04T13:59:35.174Z,3.23
2019-03-04T14:02:06.620Z,3.27
2019-03-04T14:04:37.672Z,3.43
2019-03-04T14:07:08.938Z,3.40
2019-03-04T14:09:40.355Z,3.20
2019-03-04T14:12:12.896Z,3.40
2019-03-04T14:14:44.342Z,2.90
2019-03-04T14:17:15.353Z,3.90
2019-03-04T14:19:46.454Z,3.53
2019-03-04T14:22:17.393Z,4.13
2019-03-04T14:24:48.487Z,14.90
2019-03-04T14:27:19.549Z,3.80
2019-03-04T14:29:50.483Z,3.70
2019-03-04T14:32:21.849Z,3.60
2019-03-04T14:34:52.926Z,3.63
2019-03-04T14:37:24.178Z,3.50
2019-03-04T14:39:55.419Z,4.23
2019-03-04T14:42:26.659Z,3.60
2019-03-04T14:44:57.677Z,3.30
2019-03-04T14:47:29.094Z,3.23
2019-03-04T14:50:09.465Z,3.50
2019-03-04T14:52:34.673Z,2.80
2019-03-04T14:55:06.705Z,2.83
2019-03-04T14:57:38.038Z,3.00
2019-03-04T15:00:14.141Z,3.17
2019-03-04T15:02:45.393Z,3.10
2019-03-04T15:05:16.782Z,2.90
2019-03-04T15:07:48.157Z,3.37
2019-03-04T15:10:19.390Z,4.03
2019-03-04T15:12:50.446Z,3.07
2019-03-04T15:15:21.752Z,2.43
2019-03-04T15:17:53.036Z,3.67
2019-03-04T15:20:24.873Z,3.23
2019-03-04T15:22:56.023Z,3.20
2019-03-04T15:25:30.450Z,3.07
2019-03-04T15:28:15.274Z,3.10
2019-03-04T15:30:47.435Z,3.80
2019-03-04T15:33:19.019Z,8.33
2019-03-04T15:35:50.684Z,4.13
2019-03-04T15:38:21.863Z,3.27
2019-03-04T15:40:52.933Z,3.57
2019-03-04T15:43:24.241Z,3.30
2019-03-04T15:45:56.106Z,4.37
2019-03-04T15:48:28.713Z,3.67
2019-03-04T15:51:00.009Z,3.40
2019-03-04T15:53:31.340Z,3.20
2019-03-04T15:56:02.701Z,2.70
2019-03-04T15:58:33.978Z,3.50
2019-03-04T16:01:05.418Z,3.63
2019-03-04T16:03:36.910Z,4.30
2019-03-04T16:06:08.014Z,4.00
2019-03-04T16:08:39.289Z,4.03
2019-03-04T16:11:10.457Z,4.13
2019-03-04T16:13:41.784Z,3.77
2019-03-04T16:16:13.207Z,4.10
2019-03-04T16:18:44.523Z,3.97
2019-03-04T16:21:15.748Z,4.37
2019-03-04T16:23:47.065Z,4.27
2019-03-04T16:26:18.266Z,3.90
2019-03-04T16:28:49.476Z,4.13
2019-03-04T16:31:20.546Z,4.20
2019-03-04T16:33:51.598Z,4.27
2019-03-04T16:36:23.028Z,4.20
2019-03-04T16:38:54.852Z,4.50
2019-03-04T16:41:26.098Z,4.67
2019-03-04T16:43:57.217Z,4.13
2019-03-04T16:46:28.393Z,5.10
2019-03-04T16:48:59.767Z,5.00
2019-03-04T16:51:31.087Z,4.83
2019-03-04T16:54:02.923Z,4.70
2019-03-04T16:56:33.958Z,5.27
2019-03-04T16:59:04.997Z,4.40
2019-03-04T17:01:36.024Z,4.80
2019-03-04T17:04:07.171Z,5.87
2019-03-04T17:06:38.120Z,8.70
2019-03-04T17:09:17.704Z,6.20
2019-03-04T17:11:49.240Z,5.20
2019-03-04T17:14:20.377Z,6.27
2019-03-04T17:16:52.830Z,5.50
2019-03-04T17:19:24.359Z,4.73
2019-03-04T17:21:55.739Z,6.27
2019-03-04T17:24:28.142Z,5.50
2019-03-04T17:26:59.147Z,5.87
2019-03-04T17:29:30.585Z,6.50
2019-03-04T17:32:02.081Z,7.17
2019-03-04T17:34:33.558Z,5.30
2019-03-04T17:37:05.947Z,4.70
2019-03-04T17:39:36.998Z,5.10
2019-03-04T17:42:08.486Z,4.43
2019-03-04T17:44:40.430Z,5.10
2019-03-04T17:47:12.789Z,5.10
2019-03-04T17:49:44.014Z,5.10
2019-03-04T17:52:15.184Z,4.17
2019-03-04T17:54:46.408Z,4.80
2019-03-04T17:57:18.581Z,5.27
2019-03-04T17:59:49.930Z,5.60
2019-03-04T18:02:21.111Z,4.07
2019-03-04T18:04:52.257Z,4.30
2019-03-04T18:07:23.412Z,4.90
2019-03-04T18:09:54.638Z,4.63
2019-03-04T18:12:25.973Z,4.60
2019-03-04T18:14:57.589Z,4.97
2019-03-04T18:17:29.676Z,4.13
2019-03-04T18:20:01.256Z,4.67
2019-03-04T18:22:33.480Z,4.47
2019-03-04T18:25:04.988Z,4.87
2019-03-04T18:27:42.800Z,4.70
2019-03-04T18:30:49.974Z,4.87
2019-03-04T18:33:43.152Z,4.70
2019-03-04T18:36:51.821Z,4.70
2019-03-04T18:39:54.952Z,5.03
2019-03-04T18:43:18.792Z,5.53
2019-03-04T18:46:39.027Z,6.03
2019-03-04T18:49:10.123Z,4.70
2019-03-04T18:51:41.906Z,5.00
2019-03-04T18:54:15.730Z,5.13
2019-03-04T18:56:47.041Z,5.03
2019-03-04T18:59:18.245Z,4.43
2019-03-04T19:01:49.780Z,4.90
2019-03-04T19:04:20.919Z,4.07
2019-03-04T19:06:52.034Z,4.93
2019-03-04T19:09:23.361Z,4.90
2019-03-04T19:11:54.480Z,5.60
2019-03-04T19:14:25.621Z,5.03
2019-03-04T19:16:56.792Z,4.87
2019-03-04T19:19:28.263Z,5.53
2019-03-04T19:21:59.421Z,4.23
2019-03-04T19:24:30.682Z,4.40
2019-03-04T19:27:01.784Z,5.00
2019-03-04T19:29:32.981Z,5.20
2019-03-04T19:32:04.190Z,5.57
2019-03-04T19:34:35.307Z,6.50
2019-03-04T19:37:06.343Z,5.70
2019-03-04T19:39:38.779Z,5.73
2019-03-04T19:42:10.027Z,5.70
2019-03-04T19:44:41.211Z,6.70
2019-03-04T19:47:12.449Z,6.07
2019-03-04T19:49:43.765Z,5.30
2019-03-04T19:52:15.139Z,4.30
2019-03-04T19:54:48.567Z,4.60
2019-03-04T19:57:21.966Z,4.60
2019-03-04T19:59:53.590Z,4.87
2019-03-04T20:02:24.731Z,4.50
2019-03-04T20:04:55.893Z,6.20
2019-03-04T20:07:27.107Z,5.30
2019-03-04T20:09:58.720Z,6.10
2019-03-04T20:12:31.070Z,5.33
2019-03-04T20:15:02.429Z,5.40
2019-03-04T20:17:34.794Z,5.07
2019-03-04T20:20:08.726Z,4.50
2019-03-04T20:22:40.145Z,5.10
2019-03-04T20:25:12.521Z,4.50
2019-03-04T20:27:43.840Z,4.00
2019-03-04T20:30:15.136Z,4.13
2019-03-04T20:32:46.562Z,3.50
2019-03-04T20:35:18.437Z,4.07
2019-03-04T20:37:52.278Z,4.67
2019-03-04T20:40:23.777Z,4.40
2019-03-04T20:42:55.363Z,11.47
2019-03-04T20:45:27.514Z,24.00
2019-03-04T20:47:58.807Z,25.30
2019-03-04T20:50:29.717Z,25.13
2019-03-04T20:53:00.877Z,26.20
2019-03-04T20:55:32.513Z,27.98
2019-03-04T20:58:04.163Z,27.22
2019-03-04T21:00:36.058Z,31.65
2019-03-04T21:03:08.092Z,29.30
2019-03-04T21:05:40.865Z,27.02
2019-03-04T21:08:12.506Z,26.55
2019-03-04T21:10:44.317Z,27.93
2019-03-04T21:13:20.660Z,26.62
2019-03-04T21:15:52.410Z,26.52
2019-03-04T21:18:25.382Z,27.15
2019-03-04T21:20:57.079Z,26.33
2019-03-04T21:23:28.997Z,25.27
2019-03-04T21:26:25.767Z,24.65
2019-03-04T21:29:30.145Z,24.63
2019-03-04T21:32:11.307Z,24.20
2019-03-04T21:35:41.398Z,28.83
2019-03-04T21:38:14.191Z,26.50
2019-03-04T21:41:50.366Z,26.12
2019-03-04T21:44:56.314Z,27.15
2019-03-04T21:47:44.358Z,28.73
2019-03-04T21:50:20.090Z,28.40
2019-03-04T21:53:11.663Z,28.45
2019-03-04T21:56:13.245Z,30.00
2019-03-04T21:58:44.741Z,32.13
2019-03-04T22:01:26.870Z,47.10
2019-03-04T22:03:58.777Z,34.85
2019-03-04T22:06:31.786Z,33.55
2019-03-04T22:09:04.826Z,34.58
2019-03-04T22:11:38.068Z,32.17
2019-03-04T22:14:11.177Z,32.63
2019-03-04T22:16:44.124Z,27.25
2019-03-04T22:19:17.008Z,23.80
2019-03-04T22:21:48.734Z,23.90
2019-03-04T22:24:20.393Z,25.55
2019-03-04T22:26:52.047Z,25.20
2019-03-04T22:29:23.932Z,23.40
2019-03-04T22:31:55.504Z,23.83
2019-03-04T22:34:27.341Z,26.35
2019-03-04T22:36:58.863Z,24.70
2019-03-04T22:39:30.307Z,23.85
2019-03-04T22:42:01.772Z,23.95
2019-03-04T22:44:33.642Z,23.65
2019-03-04T22:47:05.212Z,23.32
2019-03-04T22:49:36.964Z,22.52
2019-03-04T22:52:08.697Z,18.80
2019-03-04T22:54:40.448Z,21.25
2019-03-04T22:57:12.194Z,18.62
2019-03-04T22:59:43.890Z,17.77
2019-03-04T23:02:17.270Z,20.00
2019-03-04T23:04:55.340Z,17.75
2019-03-04T23:07:38.184Z,17.77
2019-03-04T23:10:47.377Z,17.73
2019-03-04T23:13:31.520Z,17.12
2019-03-04T23:16:04.164Z,18.25
2019-03-04T23:18:35.664Z,16.57
2019-03-04T23:21:07.258Z,18.17
2019-03-04T23:23:38.819Z,16.40
2019-03-04T23:26:10.264Z,14.78
2019-03-04T23:28:42.038Z,16.73
2019-03-04T23:31:13.585Z,17.07
2019-03-04T23:33:45.120Z,16.12
2019-03-04T23:36:16.690Z,16.57
2019-03-04T23:38:48.180Z,16.55
2019-03-04T23:41:19.751Z,17.95
2019-03-04T23:43:51.091Z,17.70
2019-03-04T23:46:24.127Z,17.20
2019-03-04T23:48:55.420Z,17.70
2019-03-04T23:51:27.102Z,15.08
2019-03-04T23:53:58.298Z,14.43
2019-03-04T23:56:29.601Z,15.75
2019-03-04T23:59:01.036Z,16.70
